Aérodrome :
LOGIN :

S'inscrire | Disclaimer

   EN    FR    IT 

 










Légende :    VFR   VFR Marginal   IFR   IFR Intensif   IFR Très Intensif
Visi : 
Plafond : 
>= 8 km
>= 3000ft
5 à 8 km
1000 à 3000 ft
1500m à 5 km
500 à 1000 ft
800 à 1500m
200 à 500 ft
< 800m
< 200 ft
Symboles :   Orages  Brouillard  Fortes neiges  Fortes précipitations  Vent > 20 kt
SIGMETs :   Divers  Orages  Givrage  Turbulence  Onde Orograph.  Cendres Volcan.






- Altitude de l'aérodrome : 184 ft
- Code IATA : BRU


EBBR - Bruxelles

DERNIER METAR :
  • 282150Z 23012KT 9999 BKN033 03/01 Q1001 NOSIG

METARs EXPIRÉS :
  • 282120Z 23014KT 9999 BKN010 BKN035 03/01 Q1000 NOSIG
  • 282050Z 23013KT 9999 -RA BKN011 04/02 Q1000 NOSIG
  • 282020Z 22012KT 9999 SCT013 03/01 Q1000 TEMPO 4000 SHRA
  • 281950Z 22018G28KT 9999 -RA FEW010 04/01 Q1000 TEMPO 4000 SHRA
  • 281920Z 24022KT 9999 BKN018 05/01 Q1000 TEMPO 4000 SHRA
  • 281850Z 24016KT 9999 SCT020 05/01 Q1000 TEMPO 4000 SHRA

TAF COR TAF EBBR
Valide du 28 à 18h jusqu'au 30 à 00h UTC


281718Z 2818/2924 22010KT 9999 FEW020 BKN030
TEMPO 2819/2822 24018G30KT 4000 SHRA
PROB30
TEMPO 2819/2822 2500 SHRASN BKN010 BKN020CB



MET'MAP, la Météo Aéronautique d'un coup d'oeil ! - Copyright ORBIFLY Décembre 2007 - Disclaimer

ORBIFLY MET'MAP TEAM :

Programmation & Développement : Alexandra Zaïnal
Sur une idée originale de : Baudouin d'Aumeries
Assistance à la programmation : Marc-Olivier Méhu
Soutien technique & logistique : Manuel Goepfert

Contact : metmap@orbifly.com




SOURCES & CREDITS :

   NOAA